createdAt,value
2019-05-18T00:03:00.000Z,10.2
2019-05-18T00:08:00.000Z,10.2
2019-05-18T00:13:00.000Z,10.2
2019-05-18T00:18:00.000Z,10.2
2019-05-18T00:23:00.000Z,10.2
2019-05-18T00:28:00.000Z,10.2
2019-05-18T00:33:00.000Z,10.3
2019-05-18T00:38:00.000Z,10.3
2019-05-18T00:43:00.000Z,10.3
2019-05-18T00:49:00.000Z,10.3
2019-05-18T00:54:00.000Z,10.3
2019-05-18T00:59:00.000Z,10.3
2019-05-18T01:04:00.000Z,10.3
2019-05-18T01:09:00.000Z,10.3
2019-05-18T01:14:00.000Z,10.2
2019-05-18T01:19:00.000Z,10.2
2019-05-18T01:24:00.000Z,10.2
2019-05-18T01:29:00.000Z,10.2
2019-05-18T01:34:00.000Z,10.2
2019-05-18T01:39:00.000Z,10.2
2019-05-18T01:44:00.000Z,10.2
2019-05-18T01:49:00.000Z,10.1
2019-05-18T01:54:00.000Z,10.0
2019-05-18T01:59:00.000Z,9.9
2019-05-18T02:04:00.000Z,9.9
2019-05-18T02:09:00.000Z,9.8
2019-05-18T02:14:00.000Z,9.7
2019-05-18T02:19:00.000Z,9.7
2019-05-18T02:24:00.000Z,9.6
2019-05-18T02:29:00.000Z,9.6
2019-05-18T02:34:00.000Z,9.5
2019-05-18T02:39:00.000Z,9.5
2019-05-18T02:44:00.000Z,9.5
2019-05-18T02:49:00.000Z,9.4
2019-05-18T02:54:00.000Z,9.4
2019-05-18T02:59:00.000Z,9.4
2019-05-18T03:04:00.000Z,9.5
2019-05-18T03:09:00.000Z,9.4
2019-05-18T03:14:00.000Z,9.4
2019-05-18T03:19:00.000Z,9.4
2019-05-18T03:24:00.000Z,9.4
2019-05-18T03:29:00.000Z,9.3
2019-05-18T03:34:00.000Z,9.3
2019-05-18T03:39:00.000Z,9.3
2019-05-18T03:44:00.000Z,9.3
2019-05-18T03:49:00.000Z,9.3
2019-05-18T03:54:00.000Z,9.3
2019-05-18T03:59:00.000Z,9.3
2019-05-18T04:04:00.000Z,9.3
2019-05-18T04:09:00.000Z,9.3
2019-05-18T04:14:00.000Z,9.3
2019-05-18T04:19:00.000Z,9.4
2019-05-18T04:24:00.000Z,9.4
2019-05-18T04:29:00.000Z,9.5
2019-05-18T04:34:00.000Z,9.6
2019-05-18T04:39:00.000Z,9.7
2019-05-18T04:44:00.000Z,9.8
2019-05-18T04:49:00.000Z,9.9
2019-05-18T04:55:00.000Z,10.1
2019-05-18T05:00:00.000Z,10.3
2019-05-18T05:05:00.000Z,10.5
2019-05-18T05:10:00.000Z,10.6
2019-05-18T05:15:00.000Z,10.7
2019-05-18T05:20:00.000Z,10.9
2019-05-18T05:25:00.000Z,11.0
2019-05-18T05:30:00.000Z,11.1
2019-05-18T05:35:00.000Z,11.3
2019-05-18T05:40:00.000Z,11.4
2019-05-18T05:45:00.000Z,11.6
2019-05-18T05:50:00.000Z,11.7
2019-05-18T05:55:00.000Z,11.9
2019-05-18T06:00:00.000Z,12.0
2019-05-18T06:05:00.000Z,12.2
2019-05-18T06:10:00.000Z,12.3
2019-05-18T06:15:00.000Z,12.4
2019-05-18T06:20:00.000Z,12.6
2019-05-18T06:25:00.000Z,12.7
2019-05-18T06:30:00.000Z,12.9
2019-05-18T06:35:00.000Z,13.1
2019-05-18T06:40:00.000Z,13.2
2019-05-18T06:45:00.000Z,13.4
2019-05-18T06:50:00.000Z,13.7
2019-05-18T06:56:00.000Z,14.1
2019-05-18T07:01:00.000Z,14.5
2019-05-18T07:06:00.000Z,14.8
2019-05-18T07:11:00.000Z,15.4
2019-05-18T07:16:00.000Z,16.1
2019-05-18T07:21:00.000Z,16.8
2019-05-18T07:26:00.000Z,17.5
2019-05-18T07:31:00.000Z,18.1
2019-05-18T07:36:00.000Z,18.6
2019-05-18T07:41:00.000Z,18.7
2019-05-18T07:46:00.000Z,18.9
2019-05-18T07:51:00.000Z,19.1
2019-05-18T07:56:00.000Z,19.4
2019-05-18T08:01:00.000Z,19.7
2019-05-18T08:06:00.000Z,19.7
2019-05-18T08:11:00.000Z,19.8
2019-05-18T08:16:00.000Z,19.4
2019-05-18T08:21:00.000Z,19.1
2019-05-18T08:26:00.000Z,18.5
2019-05-18T08:31:00.000Z,18.1
2019-05-18T08:36:00.000Z,17.7
2019-05-18T08:41:00.000Z,17.4
2019-05-18T08:46:00.000Z,17.2
2019-05-18T08:51:00.000Z,17.0
2019-05-18T08:57:00.000Z,16.9
2019-05-18T09:02:00.000Z,17.0
2019-05-18T09:07:00.000Z,17.0
2019-05-18T09:12:00.000Z,17.2
2019-05-18T09:17:00.000Z,17.4
2019-05-18T09:22:00.000Z,17.3
2019-05-18T09:27:00.000Z,17.2
2019-05-18T09:32:00.000Z,17.2
2019-05-18T09:37:00.000Z,17.9
2019-05-18T09:42:00.000Z,18.2
2019-05-18T09:47:00.000Z,18.6
2019-05-18T09:52:00.000Z,18.9
2019-05-18T09:57:00.000Z,19.2
2019-05-18T10:02:00.000Z,19.6
2019-05-18T10:07:00.000Z,20.2
2019-05-18T10:12:00.000Z,20.5
2019-05-18T10:17:00.000Z,20.8
2019-05-18T10:22:00.000Z,20.9
2019-05-18T10:28:00.000Z,21.1
2019-05-18T10:33:00.000Z,21.2
2019-05-18T10:38:00.000Z,21.5
2019-05-18T10:43:00.000Z,21.8
2019-05-18T10:48:00.000Z,21.9
2019-05-18T10:53:00.000Z,21.9
2019-05-18T10:58:00.000Z,21.6
2019-05-18T11:03:00.000Z,21.3
2019-05-18T11:08:00.000Z,21.2
2019-05-18T11:13:00.000Z,21.1
2019-05-18T11:18:00.000Z,21.1
2019-05-18T11:23:00.000Z,21.1
2019-05-18T11:28:00.000Z,20.9
2019-05-18T11:33:00.000Z,21.0
2019-05-18T11:38:00.000Z,20.9
2019-05-18T11:43:00.000Z,20.9
2019-05-18T11:48:00.000Z,20.7
2019-05-18T11:53:00.000Z,20.7
2019-05-18T11:58:00.000Z,20.8
2019-05-18T12:03:00.000Z,21.0
2019-05-18T12:09:00.000Z,21.0
2019-05-18T12:14:00.000Z,21.1
2019-05-18T12:19:00.000Z,21.2
2019-05-18T12:24:00.000Z,21.4
2019-05-18T12:29:00.000Z,21.7
2019-05-18T12:34:00.000Z,21.8
2019-05-18T12:39:00.000Z,21.9
2019-05-18T12:44:00.000Z,21.9
2019-05-18T12:49:00.000Z,22.0
2019-05-18T12:54:00.000Z,21.9
2019-05-18T12:59:00.000Z,22.0
2019-05-18T13:04:00.000Z,21.9
2019-05-18T13:09:00.000Z,22.0
2019-05-18T13:14:00.000Z,22.1
2019-05-18T13:19:00.000Z,22.3
2019-05-18T13:24:00.000Z,22.2
2019-05-18T13:29:00.000Z,22.3
2019-05-18T13:34:00.000Z,22.4
2019-05-18T13:39:00.000Z,22.4
2019-05-18T13:44:00.000Z,22.6
2019-05-18T13:49:00.000Z,22.7
2019-05-18T13:54:00.000Z,22.6
2019-05-18T14:00:00.000Z,22.5
2019-05-18T14:05:00.000Z,22.6
2019-05-18T14:10:00.000Z,22.4
2019-05-18T14:15:00.000Z,22.3
2019-05-18T14:20:00.000Z,22.3
2019-05-18T14:25:00.000Z,22.3
2019-05-18T14:30:00.000Z,22.3
2019-05-18T14:35:00.000Z,22.1
2019-05-18T14:40:00.000Z,21.8
2019-05-18T14:45:00.000Z,21.8
2019-05-18T14:50:00.000Z,21.9
2019-05-18T14:55:00.000Z,22.1
2019-05-18T15:00:00.000Z,22.1
2019-05-18T15:05:00.000Z,21.9
2019-05-18T15:10:00.000Z,21.7
2019-05-18T15:15:00.000Z,21.6
2019-05-18T15:20:00.000Z,21.7
2019-05-18T15:25:00.000Z,21.7
2019-05-18T15:30:00.000Z,21.6
2019-05-18T15:35:00.000Z,21.6
2019-05-18T15:40:00.000Z,21.5
2019-05-18T15:45:00.000Z,21.4
2019-05-18T15:50:00.000Z,21.1
2019-05-18T15:55:00.000Z,20.9
2019-05-18T16:01:00.000Z,20.8
2019-05-18T16:06:00.000Z,20.8
2019-05-18T16:11:00.000Z,20.7
2019-05-18T16:16:00.000Z,20.6
2019-05-18T16:21:00.000Z,20.5
2019-05-18T16:26:00.000Z,20.4
2019-05-18T16:31:00.000Z,20.3
2019-05-18T16:36:00.000Z,20.3
2019-05-18T16:41:00.000Z,20.1
2019-05-18T16:46:00.000Z,20.0
2019-05-18T16:51:00.000Z,19.9
2019-05-18T16:56:00.000Z,19.8
2019-05-18T17:01:00.000Z,19.7
2019-05-18T17:06:00.000Z,19.6
2019-05-18T17:11:00.000Z,19.5
2019-05-18T17:16:00.000Z,19.4
2019-05-18T17:21:00.000Z,19.3
2019-05-18T17:26:00.000Z,19.2
2019-05-18T17:31:00.000Z,19.2
2019-05-18T17:36:00.000Z,19.1
2019-05-18T17:41:00.000Z,19.0
2019-05-18T17:46:00.000Z,18.9
2019-05-18T17:51:00.000Z,18.8
2019-05-18T17:56:00.000Z,18.7
2019-05-18T18:02:00.000Z,18.6
2019-05-18T18:07:00.000Z,18.5
2019-05-18T18:12:00.000Z,18.3
2019-05-18T18:17:00.000Z,18.2
2019-05-18T18:22:00.000Z,18.1
2019-05-18T18:27:00.000Z,18.0
2019-05-18T18:32:00.000Z,17.9
2019-05-18T18:37:00.000Z,17.7
2019-05-18T18:42:00.000Z,17.6
2019-05-18T18:47:00.000Z,17.5
2019-05-18T18:52:00.000Z,17.4
2019-05-18T18:57:00.000Z,17.4
2019-05-18T19:02:00.000Z,17.3
2019-05-18T19:07:00.000Z,17.2
2019-05-18T19:12:00.000Z,17.1
2019-05-18T19:17:00.000Z,17.0
2019-05-18T19:22:00.000Z,17.0
2019-05-18T19:27:00.000Z,16.9
2019-05-18T19:32:00.000Z,16.9
2019-05-18T19:37:00.000Z,16.9
2019-05-18T19:42:00.000Z,16.8
2019-05-18T19:47:00.000Z,16.8
2019-05-18T19:52:00.000Z,16.7
2019-05-18T19:57:00.000Z,16.6
2019-05-18T20:03:00.000Z,16.6
2019-05-18T20:08:00.000Z,16.5
2019-05-18T20:13:00.000Z,16.5
2019-05-18T20:18:00.000Z,16.4
2019-05-18T20:23:00.000Z,16.4
2019-05-18T20:28:00.000Z,16.3
2019-05-18T20:33:00.000Z,16.3
2019-05-18T20:38:00.000Z,16.3
2019-05-18T20:43:00.000Z,16.2
2019-05-18T20:48:00.000Z,16.1
2019-05-18T20:53:00.000Z,16.0
2019-05-18T20:58:00.000Z,15.9
2019-05-18T21:03:00.000Z,15.9
2019-05-18T21:08:00.000Z,15.8
2019-05-18T21:13:00.000Z,15.7
2019-05-18T21:18:00.000Z,15.7
2019-05-18T21:23:00.000Z,15.7
2019-05-18T21:28:00.000Z,15.6
2019-05-18T21:34:00.000Z,15.6
2019-05-18T21:39:00.000Z,15.5
2019-05-18T21:44:00.000Z,15.4
2019-05-18T21:49:00.000Z,15.4
2019-05-18T21:54:00.000Z,15.3
2019-05-18T21:59:00.000Z,15.3
2019-05-18T22:04:00.000Z,15.2
2019-05-18T22:09:00.000Z,15.2
2019-05-18T22:14:00.000Z,15.1
2019-05-18T22:19:00.000Z,15.0
2019-05-18T22:24:00.000Z,14.9
2019-05-18T22:29:00.000Z,14.8
2019-05-18T22:34:00.000Z,14.7
2019-05-18T22:39:00.000Z,14.6
2019-05-18T22:44:00.000Z,14.5
2019-05-18T22:49:00.000Z,14.5
2019-05-18T22:54:00.000Z,14.4
2019-05-18T22:59:00.000Z,14.3
2019-05-18T23:04:00.000Z,14.2
2019-05-18T23:09:00.000Z,14.2
2019-05-18T23:14:00.000Z,14.2
2019-05-18T23:19:00.000Z,14.2
2019-05-18T23:24:00.000Z,14.1
2019-05-18T23:29:00.000Z,14.1
2019-05-18T23:34:00.000Z,14.0
2019-05-18T23:39:00.000Z,14.0
2019-05-18T23:44:00.000Z,14.0
2019-05-18T23:49:00.000Z,13.9
2019-05-18T23:54:00.000Z,13.9
2019-05-18T23:59:00.000Z,13.8
